sensor_id;sensor_type;location;lat;lon;timestamp;P1;durP1;ratioP1;P2;durP2;ratioP2
5299;SDS011;70402;42.670;23.258;2024-01-15T00:01:29;27.40;;;13.13;;
5299;SDS011;70402;42.670;23.258;2024-01-15T00:03:55;26.15;;;11.20;;
5299;SDS011;70402;42.670;23.258;2024-01-15T00:06:21;17.20;;;10.00;;
5299;SDS011;70402;42.670;23.258;2024-01-15T00:08:47;22.02;;;11.43;;
5299;SDS011;70402;42.670;23.258;2024-01-15T00:11:13;29.42;;;14.00;;
5299;SDS011;70402;42.670;23.258;2024-01-15T00:13:40;19.45;;;11.68;;
5299;SDS011;70402;42.670;23.258;2024-01-15T00:16:06;20.50;;;11.45;;
5299;SDS011;70402;42.670;23.258;2024-01-15T00:18:32;20.02;;;11.07;;
5299;SDS011;70402;42.670;23.258;2024-01-15T00:20:58;29.90;;;10.25;;
5299;SDS011;70402;42.670;23.258;2024-01-15T00:23:24;24.63;;;12.10;;
5299;SDS011;70402;42.670;23.258;2024-01-15T00:25:50;13.57;;;9.00;;
5299;SDS011;70402;42.670;23.258;2024-01-15T00:28:17;19.67;;;10.48;;
5299;SDS011;70402;42.670;23.258;2024-01-15T00:30:43;21.40;;;10.30;;
5299;SDS011;70402;42.670;23.258;2024-01-15T00:33:09;18.08;;;8.90;;
5299;SDS011;70402;42.670;23.258;2024-01-15T00:35:37;16.33;;;10.43;;
5299;SDS011;70402;42.670;23.258;2024-01-15T00:38:03;23.85;;;10.98;;
5299;SDS011;70402;42.670;23.258;2024-01-15T00:40:29;16.98;;;10.65;;
5299;SDS011;70402;42.670;23.258;2024-01-15T00:42:56;21.35;;;10.32;;
5299;SDS011;70402;42.670;23.258;2024-01-15T00:45:22;16.02;;;8.48;;
5299;SDS011;70402;42.670;23.258;2024-01-15T00:47:48;21.48;;;11.80;;
5299;SDS011;70402;42.670;23.258;2024-01-15T00:50:14;17.98;;;8.10;;
5299;SDS011;70402;42.670;23.258;2024-01-15T00:52:40;27.33;;;11.38;;
5299;SDS011;70402;42.670;23.258;2024-01-15T00:55:07;16.48;;;9.43;;
5299;SDS011;70402;42.670;23.258;2024-01-15T00:57:33;15.70;;;9.00;;
5299;SDS011;70402;42.670;23.258;2024-01-15T00:59:59;20.83;;;8.95;;
5299;SDS011;70402;42.670;23.258;2024-01-15T01:02:26;16.13;;;9.75;;
5299;SDS011;70402;42.670;23.258;2024-01-15T01:04:52;17.50;;;9.80;;
5299;SDS011;70402;42.670;23.258;2024-01-15T01:07:18;19.45;;;10.40;;
5299;SDS011;70402;42.670;23.258;2024-01-15T01:09:44;19.52;;;9.82;;
5299;SDS011;70402;42.670;23.258;2024-01-15T01:12:10;22.73;;;10.13;;
5299;SDS011;70402;42.670;23.258;2024-01-15T01:14:37;18.02;;;9.80;;
5299;SDS011;70402;42.670;23.258;2024-01-15T01:17:03;13.35;;;8.40;;
5299;SDS011;70402;42.670;23.258;2024-01-15T01:19:29;25.15;;;10.25;;
5299;SDS011;70402;42.670;23.258;2024-01-15T01:21:55;20.85;;;10.18;;
5299;SDS011;70402;42.670;23.258;2024-01-15T01:24:21;17.90;;;9.15;;
5299;SDS011;70402;42.670;23.258;2024-01-15T01:26:48;18.13;;;8.20;;
5299;SDS011;70402;42.670;23.258;2024-01-15T01:29:14;16.38;;;8.50;;
5299;SDS011;70402;42.670;23.258;2024-01-15T01:31:43;12.55;;;7.10;;
5299;SDS011;70402;42.670;23.258;2024-01-15T01:34:10;15.88;;;8.82;;
5299;SDS011;70402;42.670;23.258;2024-01-15T01:36:36;17.50;;;9.75;;
5299;SDS011;70402;42.670;23.258;2024-01-15T01:39:02;20.05;;;10.07;;
5299;SDS011;70402;42.670;23.258;2024-01-15T01:41:28;16.55;;;9.48;;
5299;SDS011;70402;42.670;23.258;2024-01-15T01:43:54;18.45;;;10.40;;
5299;SDS011;70402;42.670;23.258;2024-01-15T01:46:21;15.65;;;8.35;;
5299;SDS011;70402;42.670;23.258;2024-01-15T01:48:47;25.27;;;8.93;;
5299;SDS011;70402;42.670;23.258;2024-01-15T01:51:13;26.27;;;7.82;;
5299;SDS011;70402;42.670;23.258;2024-01-15T01:53:40;16.15;;;7.82;;
5299;SDS011;70402;42.670;23.258;2024-01-15T01:56:06;14.35;;;8.63;;
5299;SDS011;70402;42.670;23.258;2024-01-15T01:58:33;14.27;;;9.02;;
5299;SDS011;70402;42.670;23.258;2024-01-15T02:00:59;17.52;;;9.68;;
5299;SDS011;70402;42.670;23.258;2024-01-15T02:03:26;13.15;;;7.20;;
5299;SDS011;70402;42.670;23.258;2024-01-15T02:05:53;16.27;;;8.55;;
5299;SDS011;70402;42.670;23.258;2024-01-15T02:08:19;13.40;;;7.72;;
5299;SDS011;70402;42.670;23.258;2024-01-15T02:10:46;14.30;;;7.63;;
5299;SDS011;70402;42.670;23.258;2024-01-15T02:13:12;16.48;;;7.88;;
5299;SDS011;70402;42.670;23.258;2024-01-15T02:15:38;18.20;;;10.88;;
5299;SDS011;70402;42.670;23.258;2024-01-15T02:18:05;12.65;;;7.38;;
5299;SDS011;70402;42.670;23.258;2024-01-15T02:20:35;15.43;;;7.45;;
5299;SDS011;70402;42.670;23.258;2024-01-15T02:23:11;17.92;;;8.98;;
5299;SDS011;70402;42.670;23.258;2024-01-15T02:25:38;17.88;;;7.07;;
5299;SDS011;70402;42.670;23.258;2024-01-15T02:28:05;12.43;;;7.10;;
5299;SDS011;70402;42.670;23.258;2024-01-15T02:30:31;15.25;;;9.25;;
5299;SDS011;70402;42.670;23.258;2024-01-15T02:32:58;17.77;;;7.75;;
5299;SDS011;70402;42.670;23.258;2024-01-15T02:35:24;13.60;;;6.82;;
5299;SDS011;70402;42.670;23.258;2024-01-15T02:37:50;20.27;;;7.50;;
5299;SDS011;70402;42.670;23.258;2024-01-15T02:40:16;12.45;;;7.30;;
5299;SDS011;70402;42.670;23.258;2024-01-15T02:42:42;10.88;;;6.25;;
5299;SDS011;70402;42.670;23.258;2024-01-15T02:45:09;13.40;;;7.03;;
5299;SDS011;70402;42.670;23.258;2024-01-15T02:47:35;17.88;;;9.30;;
5299;SDS011;70402;42.670;23.258;2024-01-15T02:50:01;12.27;;;7.43;;
5299;SDS011;70402;42.670;23.258;2024-01-15T02:52:27;13.50;;;7.72;;
5299;SDS011;70402;42.670;23.258;2024-01-15T02:54:53;11.93;;;5.97;;
5299;SDS011;70402;42.670;23.258;2024-01-15T02:57:19;23.25;;;8.50;;
5299;SDS011;70402;42.670;23.258;2024-01-15T02:59:46;15.80;;;8.07;;
5299;SDS011;70402;42.670;23.258;2024-01-15T03:02:12;12.68;;;7.53;;
5299;SDS011;70402;42.670;23.258;2024-01-15T03:04:42;14.75;;;8.10;;
5299;SDS011;70402;42.670;23.258;2024-01-15T03:07:08;16.90;;;8.25;;
5299;SDS011;70402;42.670;23.258;2024-01-15T03:09:34;17.23;;;5.90;;
5299;SDS011;70402;42.670;23.258;2024-01-15T03:12:01;11.05;;;7.10;;
5299;SDS011;70402;42.670;23.258;2024-01-15T03:14:27;10.82;;;6.57;;
5299;SDS011;70402;42.670;23.258;2024-01-15T03:16:53;12.23;;;7.75;;
5299;SDS011;70402;42.670;23.258;2024-01-15T03:19:19;13.80;;;7.05;;
5299;SDS011;70402;42.670;23.258;2024-01-15T03:21:45;14.13;;;8.73;;
5299;SDS011;70402;42.670;23.258;2024-01-15T03:24:12;14.65;;;8.88;;
5299;SDS011;70402;42.670;23.258;2024-01-15T03:26:38;19.23;;;8.25;;
5299;SDS011;70402;42.670;23.258;2024-01-15T03:29:04;23.05;;;8.48;;
5299;SDS011;70402;42.670;23.258;2024-01-15T03:31:31;25.95;;;9.25;;
5299;SDS011;70402;42.670;23.258;2024-01-15T03:33:57;16.10;;;7.50;;
5299;SDS011;70402;42.670;23.258;2024-01-15T03:36:23;21.05;;;8.65;;
5299;SDS011;70402;42.670;23.258;2024-01-15T03:38:49;15.70;;;8.02;;
5299;SDS011;70402;42.670;23.258;2024-01-15T03:41:15;10.50;;;5.88;;
5299;SDS011;70402;42.670;23.258;2024-01-15T03:43:41;12.57;;;6.93;;
5299;SDS011;70402;42.670;23.258;2024-01-15T03:46:08;16.00;;;7.18;;
5299;SDS011;70402;42.670;23.258;2024-01-15T03:48:34;18.85;;;9.55;;
5299;SDS011;70402;42.670;23.258;2024-01-15T03:51:00;11.07;;;7.03;;
5299;SDS011;70402;42.670;23.258;2024-01-15T03:53:26;9.23;;;7.05;;
5299;SDS011;70402;42.670;23.258;2024-01-15T03:55:52;16.17;;;8.82;;
5299;SDS011;70402;42.670;23.258;2024-01-15T03:58:19;13.07;;;9.00;;
5299;SDS011;70402;42.670;23.258;2024-01-15T04:00:45;15.70;;;7.60;;
5299;SDS011;70402;42.670;23.258;2024-01-15T04:03:11;16.70;;;8.27;;
5299;SDS011;70402;42.670;23.258;2024-01-15T04:05:37;13.68;;;7.88;;
5299;SDS011;70402;42.670;23.258;2024-01-15T04:08:04;44.78;;;8.55;;
5299;SDS011;70402;42.670;23.258;2024-01-15T04:10:30;17.40;;;8.38;;
5299;SDS011;70402;42.670;23.258;2024-01-15T04:12:56;20.52;;;8.90;;
5299;SDS011;70402;42.670;23.258;2024-01-15T04:15:25;14.57;;;9.30;;
5299;SDS011;70402;42.670;23.258;2024-01-15T04:17:51;19.88;;;9.60;;
5299;SDS011;70402;42.670;23.258;2024-01-15T04:20:17;16.45;;;8.82;;
5299;SDS011;70402;42.670;23.258;2024-01-15T04:22:44;24.17;;;14.25;;
5299;SDS011;70402;42.670;23.258;2024-01-15T04:25:10;20.08;;;10.93;;
5299;SDS011;70402;42.670;23.258;2024-01-15T04:27:36;38.13;;;17.63;;
5299;SDS011;70402;42.670;23.258;2024-01-15T04:30:02;38.47;;;17.20;;
5299;SDS011;70402;42.670;23.258;2024-01-15T04:32:28;47.38;;;19.35;;
5299;SDS011;70402;42.670;23.258;2024-01-15T04:34:55;39.25;;;19.20;;
5299;SDS011;70402;42.670;23.258;2024-01-15T04:37:21;30.10;;;17.70;;
5299;SDS011;70402;42.670;23.258;2024-01-15T04:39:47;36.47;;;18.27;;
5299;SDS011;70402;42.670;23.258;2024-01-15T04:42:14;31.88;;;18.35;;
5299;SDS011;70402;42.670;23.258;2024-01-15T04:44:40;33.45;;;15.98;;
5299;SDS011;70402;42.670;23.258;2024-01-15T04:47:06;37.17;;;19.08;;
5299;SDS011;70402;42.670;23.258;2024-01-15T04:49:32;32.92;;;19.65;;
5299;SDS011;70402;42.670;23.258;2024-01-15T04:51:58;35.95;;;18.35;;
5299;SDS011;70402;42.670;23.258;2024-01-15T04:54:24;38.53;;;19.50;;
5299;SDS011;70402;42.670;23.258;2024-01-15T04:56:51;38.97;;;19.17;;
5299;SDS011;70402;42.670;23.258;2024-01-15T04:59:17;39.03;;;18.10;;
5299;SDS011;70402;42.670;23.258;2024-01-15T05:01:43;41.95;;;20.02;;
5299;SDS011;70402;42.670;23.258;2024-01-15T05:04:09;31.95;;;16.98;;
5299;SDS011;70402;42.670;23.258;2024-01-15T05:06:35;36.30;;;16.20;;
5299;SDS011;70402;42.670;23.258;2024-01-15T05:09:01;35.10;;;18.75;;
5299;SDS011;70402;42.670;23.258;2024-01-15T05:11:29;42.55;;;21.13;;
5299;SDS011;70402;42.670;23.258;2024-01-15T05:13:55;32.53;;;16.25;;
5299;SDS011;70402;42.670;23.258;2024-01-15T05:16:21;31.35;;;16.25;;
5299;SDS011;70402;42.670;23.258;2024-01-15T05:18:47;29.63;;;13.23;;
5299;SDS011;70402;42.670;23.258;2024-01-15T05:21:14;27.58;;;14.10;;
5299;SDS011;70402;42.670;23.258;2024-01-15T05:23:40;37.97;;;14.63;;
5299;SDS011;70402;42.670;23.258;2024-01-15T05:26:06;23.92;;;12.70;;
5299;SDS011;70402;42.670;23.258;2024-01-15T05:28:34;24.33;;;12.65;;
5299;SDS011;70402;42.670;23.258;2024-01-15T05:31:00;25.45;;;11.65;;
5299;SDS011;70402;42.670;23.258;2024-01-15T05:33:27;26.10;;;13.82;;
5299;SDS011;70402;42.670;23.258;2024-01-15T05:35:53;29.45;;;15.60;;
5299;SDS011;70402;42.670;23.258;2024-01-15T05:38:19;21.67;;;11.57;;
5299;SDS011;70402;42.670;23.258;2024-01-15T05:40:46;25.52;;;10.70;;
5299;SDS011;70402;42.670;23.258;2024-01-15T05:43:12;23.15;;;13.85;;
5299;SDS011;70402;42.670;23.258;2024-01-15T05:45:38;31.08;;;14.55;;
5299;SDS011;70402;42.670;23.258;2024-01-15T05:48:04;30.40;;;16.25;;
5299;SDS011;70402;42.670;23.258;2024-01-15T05:50:30;29.35;;;14.27;;
5299;SDS011;70402;42.670;23.258;2024-01-15T05:52:56;24.30;;;11.52;;
5299;SDS011;70402;42.670;23.258;2024-01-15T05:55:23;27.63;;;13.52;;
5299;SDS011;70402;42.670;23.258;2024-01-15T05:57:49;19.33;;;12.00;;
5299;SDS011;70402;42.670;23.258;2024-01-15T06:00:15;27.58;;;12.45;;
5299;SDS011;70402;42.670;23.258;2024-01-15T06:02:41;21.58;;;12.13;;
5299;SDS011;70402;42.670;23.258;2024-01-15T06:05:08;20.08;;;12.45;;
5299;SDS011;70402;42.670;23.258;2024-01-15T06:07:34;29.40;;;14.48;;
5299;SDS011;70402;42.670;23.258;2024-01-15T06:10:01;33.97;;;14.50;;
5299;SDS011;70402;42.670;23.258;2024-01-15T06:12:27;27.25;;;12.95;;
5299;SDS011;70402;42.670;23.258;2024-01-15T06:14:54;21.42;;;12.90;;
5299;SDS011;70402;42.670;23.258;2024-01-15T06:17:20;24.67;;;12.60;;
5299;SDS011;70402;42.670;23.258;2024-01-15T06:19:46;27.08;;;12.80;;
5299;SDS011;70402;42.670;23.258;2024-01-15T06:22:12;22.63;;;11.80;;
5299;SDS011;70402;42.670;23.258;2024-01-15T06:24:39;27.70;;;15.57;;
5299;SDS011;70402;42.670;23.258;2024-01-15T06:27:05;35.30;;;15.85;;
5299;SDS011;70402;42.670;23.258;2024-01-15T06:29:31;24.30;;;12.30;;
5299;SDS011;70402;42.670;23.258;2024-01-15T06:31:57;31.33;;;15.00;;
5299;SDS011;70402;42.670;23.258;2024-01-15T06:34:23;27.90;;;13.73;;
5299;SDS011;70402;42.670;23.258;2024-01-15T06:36:51;26.63;;;13.48;;
5299;SDS011;70402;42.670;23.258;2024-01-15T06:39:18;24.13;;;12.55;;
5299;SDS011;70402;42.670;23.258;2024-01-15T06:41:44;34.65;;;15.30;;
5299;SDS011;70402;42.670;23.258;2024-01-15T06:44:10;27.55;;;13.77;;
5299;SDS011;70402;42.670;23.258;2024-01-15T06:46:36;37.28;;;19.00;;
5299;SDS011;70402;42.670;23.258;2024-01-15T06:49:03;39.10;;;20.30;;
5299;SDS011;70402;42.670;23.258;2024-01-15T06:51:29;40.20;;;19.05;;
5299;SDS011;70402;42.670;23.258;2024-01-15T06:53:55;32.65;;;17.70;;
5299;SDS011;70402;42.670;23.258;2024-01-15T06:56:21;35.75;;;20.15;;
5299;SDS011;70402;42.670;23.258;2024-01-15T06:58:48;34.50;;;16.88;;
5299;SDS011;70402;42.670;23.258;2024-01-15T07:01:14;33.25;;;17.00;;
5299;SDS011;70402;42.670;23.258;2024-01-15T07:03:40;37.00;;;17.27;;
5299;SDS011;70402;42.670;23.258;2024-01-15T07:06:07;40.00;;;19.60;;
5299;SDS011;70402;42.670;23.258;2024-01-15T07:08:33;35.67;;;18.20;;
5299;SDS011;70402;42.670;23.258;2024-01-15T07:10:59;43.00;;;18.40;;
5299;SDS011;70402;42.670;23.258;2024-01-15T07:13:25;41.47;;;17.35;;
5299;SDS011;70402;42.670;23.258;2024-01-15T07:15:52;37.42;;;17.35;;
5299;SDS011;70402;42.670;23.258;2024-01-15T07:18:18;41.45;;;19.90;;
5299;SDS011;70402;42.670;23.258;2024-01-15T07:20:44;41.30;;;20.92;;
5299;SDS011;70402;42.670;23.258;2024-01-15T07:23:10;34.00;;;17.88;;
5299;SDS011;70402;42.670;23.258;2024-01-15T07:25:37;31.80;;;15.57;;
5299;SDS011;70402;42.670;23.258;2024-01-15T07:28:03;25.73;;;14.70;;
5299;SDS011;70402;42.670;23.258;2024-01-15T07:30:30;32.15;;;16.42;;
5299;SDS011;70402;42.670;23.258;2024-01-15T07:32:56;34.08;;;17.17;;
5299;SDS011;70402;42.670;23.258;2024-01-15T07:35:22;37.90;;;18.80;;
5299;SDS011;70402;42.670;23.258;2024-01-15T07:37:48;29.65;;;19.33;;
5299;SDS011;70402;42.670;23.258;2024-01-15T07:40:14;27.90;;;18.00;;
5299;SDS011;70402;42.670;23.258;2024-01-15T07:42:41;28.55;;;17.55;;
5299;SDS011;70402;42.670;23.258;2024-01-15T07:45:08;37.72;;;20.15;;
5299;SDS011;70402;42.670;23.258;2024-01-15T07:47:34;30.70;;;16.88;;
5299;SDS011;70402;42.670;23.258;2024-01-15T07:50:01;38.25;;;17.60;;
5299;SDS011;70402;42.670;23.258;2024-01-15T07:52:27;42.72;;;19.25;;
5299;SDS011;70402;42.670;23.258;2024-01-15T07:54:53;40.08;;;22.60;;
5299;SDS011;70402;42.670;23.258;2024-01-15T07:57:20;38.85;;;21.08;;
5299;SDS011;70402;42.670;23.258;2024-01-15T07:59:46;45.65;;;25.70;;
5299;SDS011;70402;42.670;23.258;2024-01-15T08:02:12;39.95;;;21.42;;
5299;SDS011;70402;42.670;23.258;2024-01-15T08:04:38;41.92;;;20.00;;
5299;SDS011;70402;42.670;23.258;2024-01-15T08:07:05;31.90;;;17.60;;
5299;SDS011;70402;42.670;23.258;2024-01-15T08:09:33;33.38;;;15.68;;
5299;SDS011;70402;42.670;23.258;2024-01-15T08:11:59;32.90;;;16.38;;
5299;SDS011;70402;42.670;23.258;2024-01-15T08:14:25;33.63;;;18.60;;
5299;SDS011;70402;42.670;23.258;2024-01-15T08:16:52;37.00;;;19.48;;
5299;SDS011;70402;42.670;23.258;2024-01-15T08:19:18;31.58;;;17.35;;
5299;SDS011;70402;42.670;23.258;2024-01-15T08:21:47;36.95;;;17.48;;
5299;SDS011;70402;42.670;23.258;2024-01-15T08:24:14;36.28;;;19.80;;
5299;SDS011;70402;42.670;23.258;2024-01-15T08:26:40;41.28;;;18.52;;
5299;SDS011;70402;42.670;23.258;2024-01-15T08:29:06;33.20;;;18.60;;
5299;SDS011;70402;42.670;23.258;2024-01-15T08:31:33;40.00;;;19.10;;
5299;SDS011;70402;42.670;23.258;2024-01-15T08:33:59;41.25;;;20.65;;
5299;SDS011;70402;42.670;23.258;2024-01-15T08:36:26;46.00;;;21.70;;
5299;SDS011;70402;42.670;23.258;2024-01-15T08:38:54;46.85;;;22.35;;
5299;SDS011;70402;42.670;23.258;2024-01-15T08:41:21;45.53;;;22.55;;
5299;SDS011;70402;42.670;23.258;2024-01-15T08:43:47;41.80;;;19.95;;
5299;SDS011;70402;42.670;23.258;2024-01-15T08:46:13;47.20;;;20.95;;
5299;SDS011;70402;42.670;23.258;2024-01-15T08:48:39;42.40;;;21.17;;
5299;SDS011;70402;42.670;23.258;2024-01-15T08:51:05;37.35;;;19.80;;
5299;SDS011;70402;42.670;23.258;2024-01-15T08:53:33;47.25;;;18.83;;
5299;SDS011;70402;42.670;23.258;2024-01-15T08:55:59;35.65;;;19.20;;
5299;SDS011;70402;42.670;23.258;2024-01-15T08:58:25;40.95;;;18.95;;
5299;SDS011;70402;42.670;23.258;2024-01-15T09:00:52;41.65;;;22.95;;
5299;SDS011;70402;42.670;23.258;2024-01-15T09:03:18;36.50;;;18.58;;
5299;SDS011;70402;42.670;23.258;2024-01-15T09:05:44;32.40;;;15.05;;
5299;SDS011;70402;42.670;23.258;2024-01-15T09:08:10;31.90;;;16.30;;
5299;SDS011;70402;42.670;23.258;2024-01-15T09:10:37;33.22;;;16.35;;
5299;SDS011;70402;42.670;23.258;2024-01-15T09:13:03;37.15;;;16.23;;
5299;SDS011;70402;42.670;23.258;2024-01-15T09:15:29;26.70;;;13.33;;
5299;SDS011;70402;42.670;23.258;2024-01-15T09:17:56;28.33;;;13.32;;
5299;SDS011;70402;42.670;23.258;2024-01-15T09:20:23;24.23;;;12.48;;
5299;SDS011;70402;42.670;23.258;2024-01-15T09:22:51;20.00;;;10.57;;
5299;SDS011;70402;42.670;23.258;2024-01-15T09:25:17;21.80;;;11.50;;
5299;SDS011;70402;42.670;23.258;2024-01-15T09:27:44;26.73;;;14.07;;
5299;SDS011;70402;42.670;23.258;2024-01-15T09:30:10;26.30;;;12.60;;
5299;SDS011;70402;42.670;23.258;2024-01-15T09:32:36;24.27;;;12.97;;
5299;SDS011;70402;42.670;23.258;2024-01-15T09:35:03;22.03;;;12.40;;
5299;SDS011;70402;42.670;23.258;2024-01-15T09:37:29;23.60;;;12.87;;
5299;SDS011;70402;42.670;23.258;2024-01-15T09:39:55;23.93;;;12.10;;
5299;SDS011;70402;42.670;23.258;2024-01-15T09:42:22;21.97;;;11.70;;
5299;SDS011;70402;42.670;23.258;2024-01-15T09:44:50;20.07;;;11.40;;
5299;SDS011;70402;42.670;23.258;2024-01-15T09:47:16;22.50;;;12.00;;
5299;SDS011;70402;42.670;23.258;2024-01-15T09:49:43;34.27;;;15.60;;
5299;SDS011;70402;42.670;23.258;2024-01-15T09:52:10;39.90;;;18.00;;
5299;SDS011;70402;42.670;23.258;2024-01-15T09:54:37;30.47;;;17.30;;
5299;SDS011;70402;42.670;23.258;2024-01-15T09:57:04;35.40;;;16.37;;
5299;SDS011;70402;42.670;23.258;2024-01-15T09:59:31;27.53;;;13.57;;
5299;SDS011;70402;42.670;23.258;2024-01-15T10:01:57;34.43;;;14.60;;
5299;SDS011;70402;42.670;23.258;2024-01-15T10:04:24;21.80;;;11.50;;
5299;SDS011;70402;42.670;23.258;2024-01-15T10:06:51;20.83;;;10.57;;
5299;SDS011;70402;42.670;23.258;2024-01-15T10:09:17;17.27;;;10.53;;
5299;SDS011;70402;42.670;23.258;2024-01-15T10:11:44;33.13;;;15.83;;
5299;SDS011;70402;42.670;23.258;2024-01-15T10:14:10;33.43;;;15.97;;
5299;SDS011;70402;42.670;23.258;2024-01-15T10:16:42;21.83;;;11.77;;
5299;SDS011;70402;42.670;23.258;2024-01-15T10:19:09;25.67;;;14.70;;
5299;SDS011;70402;42.670;23.258;2024-01-15T10:21:35;29.90;;;16.80;;
5299;SDS011;70402;42.670;23.258;2024-01-15T10:24:02;32.77;;;14.83;;
5299;SDS011;70402;42.670;23.258;2024-01-15T10:26:28;36.20;;;16.50;;
5299;SDS011;70402;42.670;23.258;2024-01-15T10:28:55;32.60;;;18.17;;
5299;SDS011;70402;42.670;23.258;2024-01-15T10:31:21;23.90;;;13.90;;
5299;SDS011;70402;42.670;23.258;2024-01-15T10:33:50;29.73;;;14.93;;
5299;SDS011;70402;42.670;23.258;2024-01-15T10:36:16;29.87;;;15.70;;
5299;SDS011;70402;42.670;23.258;2024-01-15T10:38:43;31.57;;;14.37;;
5299;SDS011;70402;42.670;23.258;2024-01-15T10:41:09;25.70;;;14.43;;
5299;SDS011;70402;42.670;23.258;2024-01-15T10:43:36;39.77;;;17.67;;
5299;SDS011;70402;42.670;23.258;2024-01-15T10:46:02;32.20;;;15.63;;
5299;SDS011;70402;42.670;23.258;2024-01-15T10:48:29;26.83;;;14.20;;
5299;SDS011;70402;42.670;23.258;2024-01-15T10:51:00;40.47;;;16.43;;
5299;SDS011;70402;42.670;23.258;2024-01-15T10:53:35;23.80;;;13.50;;
5299;SDS011;70402;42.670;23.258;2024-01-15T10:56:03;29.70;;;15.47;;
5299;SDS011;70402;42.670;23.258;2024-01-15T10:58:31;28.70;;;15.53;;
5299;SDS011;70402;42.670;23.258;2024-01-15T11:00:57;24.73;;;14.17;;
5299;SDS011;70402;42.670;23.258;2024-01-15T11:03:23;30.40;;;14.50;;
5299;SDS011;70402;42.670;23.258;2024-01-15T11:05:50;33.10;;;16.43;;
5299;SDS011;70402;42.670;23.258;2024-01-15T11:08:17;32.80;;;15.13;;
5299;SDS011;70402;42.670;23.258;2024-01-15T11:10:47;32.73;;;16.13;;
5299;SDS011;70402;42.670;23.258;2024-01-15T11:13:15;25.30;;;14.80;;
5299;SDS011;70402;42.670;23.258;2024-01-15T11:15:54;25.83;;;12.77;;
5299;SDS011;70402;42.670;23.258;2024-01-15T11:18:21;29.27;;;13.10;;
5299;SDS011;70402;42.670;23.258;2024-01-15T11:23:44;27.20;;;10.47;;
5299;SDS011;70402;42.670;23.258;2024-01-15T11:26:34;20.30;;;10.13;;
5299;SDS011;70402;42.670;23.258;2024-01-15T11:28:58;19.50;;;11.10;;
5299;SDS011;70402;42.670;23.258;2024-01-15T11:34:09;20.43;;;10.00;;
5299;SDS011;70402;42.670;23.258;2024-01-15T11:41:56;23.47;;;12.90;;
5299;SDS011;70402;42.670;23.258;2024-01-15T11:44:22;25.73;;;12.50;;
5299;SDS011;70402;42.670;23.258;2024-01-15T11:47:01;24.53;;;12.77;;
5299;SDS011;70402;42.670;23.258;2024-01-15T11:51:54;18.90;;;10.40;;
5299;SDS011;70402;42.670;23.258;2024-01-15T11:54:21;22.10;;;12.17;;
5299;SDS011;70402;42.670;23.258;2024-01-15T11:56:48;26.07;;;11.80;;
5299;SDS011;70402;42.670;23.258;2024-01-15T11:59:15;19.83;;;12.17;;
5299;SDS011;70402;42.670;23.258;2024-01-15T12:01:41;25.17;;;11.80;;
5299;SDS011;70402;42.670;23.258;2024-01-15T12:04:08;25.97;;;12.90;;
5299;SDS011;70402;42.670;23.258;2024-01-15T12:06:34;24.03;;;13.20;;
5299;SDS011;70402;42.670;23.258;2024-01-15T12:09:09;20.53;;;12.33;;
5299;SDS011;70402;42.670;23.258;2024-01-15T12:11:36;22.50;;;12.90;;
5299;SDS011;70402;42.670;23.258;2024-01-15T12:14:04;20.27;;;12.03;;
5299;SDS011;70402;42.670;23.258;2024-01-15T12:16:30;20.07;;;11.27;;
5299;SDS011;70402;42.670;23.258;2024-01-15T12:18:56;26.40;;;13.10;;
5299;SDS011;70402;42.670;23.258;2024-01-15T12:21:22;17.50;;;11.20;;
5299;SDS011;70402;42.670;23.258;2024-01-15T12:23:52;27.33;;;12.40;;
5299;SDS011;70402;42.670;23.258;2024-01-15T12:26:19;26.17;;;12.00;;
5299;SDS011;70402;42.670;23.258;2024-01-15T12:28:45;25.90;;;13.40;;
5299;SDS011;70402;42.670;23.258;2024-01-15T12:31:12;25.90;;;12.20;;
5299;SDS011;70402;42.670;23.258;2024-01-15T12:33:39;23.90;;;12.60;;
5299;SDS011;70402;42.670;23.258;2024-01-15T12:36:05;25.00;;;12.40;;
5299;SDS011;70402;42.670;23.258;2024-01-15T12:38:31;19.37;;;11.27;;
5299;SDS011;70402;42.670;23.258;2024-01-15T12:40:57;23.13;;;11.70;;
5299;SDS011;70402;42.670;23.258;2024-01-15T12:43:26;21.23;;;12.90;;
5299;SDS011;70402;42.670;23.258;2024-01-15T12:45:52;23.00;;;12.37;;
5299;SDS011;70402;42.670;23.258;2024-01-15T12:48:19;21.73;;;11.93;;
5299;SDS011;70402;42.670;23.258;2024-01-15T12:50:45;21.50;;;11.30;;
5299;SDS011;70402;42.670;23.258;2024-01-15T12:53:12;25.00;;;11.93;;
5299;SDS011;70402;42.670;23.258;2024-01-15T12:55:38;24.83;;;13.07;;
5299;SDS011;70402;42.670;23.258;2024-01-15T12:58:04;23.90;;;13.33;;
5299;SDS011;70402;42.670;23.258;2024-01-15T13:00:31;30.57;;;12.50;;
5299;SDS011;70402;42.670;23.258;2024-01-15T13:02:57;17.60;;;10.30;;
5299;SDS011;70402;42.670;23.258;2024-01-15T13:05:23;23.87;;;11.10;;
5299;SDS011;70402;42.670;23.258;2024-01-15T13:07:50;20.87;;;11.30;;
5299;SDS011;70402;42.670;23.258;2024-01-15T13:10:17;20.23;;;11.33;;
5299;SDS011;70402;42.670;23.258;2024-01-15T13:12:43;20.80;;;10.50;;
5299;SDS011;70402;42.670;23.258;2024-01-15T13:15:09;22.10;;;10.07;;
5299;SDS011;70402;42.670;23.258;2024-01-15T13:17:38;15.60;;;9.17;;
5299;SDS011;70402;42.670;23.258;2024-01-15T13:20:05;22.00;;;10.97;;
5299;SDS011;70402;42.670;23.258;2024-01-15T13:22:32;23.47;;;10.63;;
5299;SDS011;70402;42.670;23.258;2024-01-15T13:24:58;21.93;;;11.37;;
5299;SDS011;70402;42.670;23.258;2024-01-15T13:27:24;22.30;;;11.53;;
5299;SDS011;70402;42.670;23.258;2024-01-15T13:29:51;18.70;;;10.70;;
5299;SDS011;70402;42.670;23.258;2024-01-15T13:32:17;22.03;;;11.53;;
5299;SDS011;70402;42.670;23.258;2024-01-15T13:34:48;27.80;;;13.40;;
5299;SDS011;70402;42.670;23.258;2024-01-15T13:37:14;20.17;;;11.73;;
5299;SDS011;70402;42.670;23.258;2024-01-15T13:39:40;19.63;;;10.10;;
5299;SDS011;70402;42.670;23.258;2024-01-15T13:42:06;19.87;;;10.50;;
5299;SDS011;70402;42.670;23.258;2024-01-15T13:44:33;25.03;;;10.17;;
5299;SDS011;70402;42.670;23.258;2024-01-15T13:46:59;20.33;;;11.00;;
5299;SDS011;70402;42.670;23.258;2024-01-15T13:49:25;26.03;;;10.50;;
5299;SDS011;70402;42.670;23.258;2024-01-15T13:51:51;22.40;;;12.27;;
5299;SDS011;70402;42.670;23.258;2024-01-15T13:54:17;22.87;;;12.13;;
5299;SDS011;70402;42.670;23.258;2024-01-15T13:56:46;19.70;;;11.27;;
5299;SDS011;70402;42.670;23.258;2024-01-15T13:59:12;24.43;;;11.87;;
5299;SDS011;70402;42.670;23.258;2024-01-15T14:01:38;29.63;;;12.40;;
5299;SDS011;70402;42.670;23.258;2024-01-15T14:04:04;25.70;;;12.37;;
5299;SDS011;70402;42.670;23.258;2024-01-15T14:06:31;25.07;;;14.33;;
5299;SDS011;70402;42.670;23.258;2024-01-15T14:08:57;28.07;;;13.03;;
5299;SDS011;70402;42.670;23.258;2024-01-15T14:11:23;28.43;;;13.67;;
5299;SDS011;70402;42.670;23.258;2024-01-15T14:13:50;28.27;;;14.37;;
5299;SDS011;70402;42.670;23.258;2024-01-15T14:16:16;25.17;;;13.47;;
5299;SDS011;70402;42.670;23.258;2024-01-15T14:18:42;22.20;;;12.50;;
5299;SDS011;70402;42.670;23.258;2024-01-15T14:21:09;30.10;;;15.17;;
5299;SDS011;70402;42.670;23.258;2024-01-15T14:23:35;25.37;;;13.80;;
5299;SDS011;70402;42.670;23.258;2024-01-15T14:26:02;36.10;;;17.87;;
5299;SDS011;70402;42.670;23.258;2024-01-15T14:28:29;48.80;;;20.73;;
5299;SDS011;70402;42.670;23.258;2024-01-15T14:30:55;37.67;;;17.80;;
5299;SDS011;70402;42.670;23.258;2024-01-15T14:33:25;32.50;;;15.10;;